sensor_id;sensor_type;location;lat;lon;timestamp;P1;durP1;ratioP1;P2;durP2;ratioP2
65552;SDS011;52465;51.560;14.368;2022-11-15T00:00:23;12.07;;;7.80;;
65552;SDS011;52465;51.560;14.368;2022-11-15T00:02:48;11.50;;;7.65;;
65552;SDS011;52465;51.560;14.368;2022-11-15T00:05:13;11.02;;;7.60;;
65552;SDS011;52465;51.560;14.368;2022-11-15T00:07:39;9.75;;;6.75;;
65552;SDS011;52465;51.560;14.368;2022-11-15T00:10:04;11.35;;;7.10;;
65552;SDS011;52465;51.560;14.368;2022-11-15T00:12:30;13.15;;;7.22;;
65552;SDS011;52465;51.560;14.368;2022-11-15T00:14:55;10.77;;;7.30;;
65552;SDS011;52465;51.560;14.368;2022-11-15T00:17:20;11.73;;;7.65;;
65552;SDS011;52465;51.560;14.368;2022-11-15T00:19:45;10.60;;;7.00;;
65552;SDS011;52465;51.560;14.368;2022-11-15T00:22:11;11.52;;;7.18;;
65552;SDS011;52465;51.560;14.368;2022-11-15T00:24:36;11.82;;;7.03;;
65552;SDS011;52465;51.560;14.368;2022-11-15T00:27:01;9.95;;;6.82;;
65552;SDS011;52465;51.560;14.368;2022-11-15T00:29:27;11.77;;;7.53;;
65552;SDS011;52465;51.560;14.368;2022-11-15T00:31:52;9.88;;;6.35;;
65552;SDS011;52465;51.560;14.368;2022-11-15T00:34:17;10.82;;;7.32;;
65552;SDS011;52465;51.560;14.368;2022-11-15T00:36:42;10.35;;;6.32;;
65552;SDS011;52465;51.560;14.368;2022-11-15T00:39:08;10.30;;;6.95;;
65552;SDS011;52465;51.560;14.368;2022-11-15T00:41:33;11.65;;;7.00;;
65552;SDS011;52465;51.560;14.368;2022-11-15T00:43:58;9.13;;;6.32;;
65552;SDS011;52465;51.560;14.368;2022-11-15T00:46:24;9.27;;;6.53;;
65552;SDS011;52465;51.560;14.368;2022-11-15T00:48:49;10.00;;;6.53;;
65552;SDS011;52465;51.560;14.368;2022-11-15T00:51:14;10.70;;;6.97;;
65552;SDS011;52465;51.560;14.368;2022-11-15T00:53:39;10.63;;;7.10;;
65552;SDS011;52465;51.560;14.368;2022-11-15T00:56:05;10.60;;;7.28;;
65552;SDS011;52465;51.560;14.368;2022-11-15T00:58:30;10.45;;;6.60;;
65552;SDS011;52465;51.560;14.368;2022-11-15T01:00:56;10.95;;;6.95;;
65552;SDS011;52465;51.560;14.368;2022-11-15T01:03:21;10.30;;;6.97;;
65552;SDS011;52465;51.560;14.368;2022-11-15T01:05:46;11.82;;;6.80;;
65552;SDS011;52465;51.560;14.368;2022-11-15T01:08:12;9.98;;;7.25;;
65552;SDS011;52465;51.560;14.368;2022-11-15T01:10:39;11.07;;;7.35;;
65552;SDS011;52465;51.560;14.368;2022-11-15T01:13:04;10.43;;;7.07;;
65552;SDS011;52465;51.560;14.368;2022-11-15T01:15:29;9.57;;;6.75;;
65552;SDS011;52465;51.560;14.368;2022-11-15T01:17:54;10.73;;;6.70;;
65552;SDS011;52465;51.560;14.368;2022-11-15T01:20:20;9.55;;;7.03;;
65552;SDS011;52465;51.560;14.368;2022-11-15T01:22:45;10.77;;;7.07;;
65552;SDS011;52465;51.560;14.368;2022-11-15T01:25:10;10.88;;;7.10;;
65552;SDS011;52465;51.560;14.368;2022-11-15T01:27:35;11.00;;;7.18;;
65552;SDS011;52465;51.560;14.368;2022-11-15T01:30:01;10.05;;;6.85;;
65552;SDS011;52465;51.560;14.368;2022-11-15T01:32:26;11.48;;;6.90;;
65552;SDS011;52465;51.560;14.368;2022-11-15T01:34:51;13.75;;;7.68;;
65552;SDS011;52465;51.560;14.368;2022-11-15T01:37:16;12.18;;;6.78;;
65552;SDS011;52465;51.560;14.368;2022-11-15T01:39:42;9.68;;;6.60;;
65552;SDS011;52465;51.560;14.368;2022-11-15T01:42:13;10.50;;;6.75;;
65552;SDS011;52465;51.560;14.368;2022-11-15T01:44:40;7.88;;;5.80;;
65552;SDS011;52465;51.560;14.368;2022-11-15T01:47:13;11.48;;;7.20;;
65552;SDS011;52465;51.560;14.368;2022-11-15T01:49:45;9.70;;;5.97;;
65552;SDS011;52465;51.560;14.368;2022-11-15T01:52:17;10.35;;;6.68;;
65552;SDS011;52465;51.560;14.368;2022-11-15T01:54:45;10.05;;;6.38;;
65552;SDS011;52465;51.560;14.368;2022-11-15T01:57:13;10.77;;;6.95;;
65552;SDS011;52465;51.560;14.368;2022-11-15T01:59:41;10.38;;;7.15;;
65552;SDS011;52465;51.560;14.368;2022-11-15T02:02:08;11.63;;;7.18;;
65552;SDS011;52465;51.560;14.368;2022-11-15T02:04:35;11.10;;;7.30;;
65552;SDS011;52465;51.560;14.368;2022-11-15T02:07:04;10.68;;;6.47;;
65552;SDS011;52465;51.560;14.368;2022-11-15T02:09:31;11.38;;;7.25;;
65552;SDS011;52465;51.560;14.368;2022-11-15T02:11:56;8.93;;;6.50;;
65552;SDS011;52465;51.560;14.368;2022-11-15T02:14:22;10.15;;;6.90;;
65552;SDS011;52465;51.560;14.368;2022-11-15T02:19:53;11.23;;;7.32;;
65552;SDS011;52465;51.560;14.368;2022-11-15T02:34:09;10.70;;;6.13;;
65552;SDS011;52465;51.560;14.368;2022-11-15T02:37:02;11.60;;;6.78;;
65552;SDS011;52465;51.560;14.368;2022-11-15T02:39:41;9.68;;;6.15;;
65552;SDS011;52465;51.560;14.368;2022-11-15T02:42:17;12.00;;;7.00;;
65552;SDS011;52465;51.560;14.368;2022-11-15T02:45:05;11.05;;;6.38;;
65552;SDS011;52465;51.560;14.368;2022-11-15T02:47:37;9.82;;;6.20;;
65552;SDS011;52465;51.560;14.368;2022-11-15T02:50:08;9.43;;;6.03;;
65552;SDS011;52465;51.560;14.368;2022-11-15T02:52:37;9.25;;;6.15;;
65552;SDS011;52465;51.560;14.368;2022-11-15T02:55:02;11.32;;;6.40;;
65552;SDS011;52465;51.560;14.368;2022-11-15T02:57:44;8.95;;;6.53;;
65552;SDS011;52465;51.560;14.368;2022-11-15T03:00:17;9.57;;;6.53;;
65552;SDS011;52465;51.560;14.368;2022-11-15T03:02:57;8.43;;;6.10;;
65552;SDS011;52465;51.560;14.368;2022-11-15T03:05:43;10.40;;;6.28;;
65552;SDS011;52465;51.560;14.368;2022-11-15T03:11:03;9.77;;;6.47;;
65552;SDS011;52465;51.560;14.368;2022-11-15T03:13:35;10.80;;;6.88;;
65552;SDS011;52465;51.560;14.368;2022-11-15T03:18:42;8.80;;;6.10;;
65552;SDS011;52465;51.560;14.368;2022-11-15T03:21:11;10.48;;;6.40;;
65552;SDS011;52465;51.560;14.368;2022-11-15T03:23:39;10.30;;;6.53;;
65552;SDS011;52465;51.560;14.368;2022-11-15T03:26:05;10.23;;;6.63;;
65552;SDS011;52465;51.560;14.368;2022-11-15T03:28:36;8.77;;;6.00;;
65552;SDS011;52465;51.560;14.368;2022-11-15T03:31:05;9.27;;;5.85;;
65552;SDS011;52465;51.560;14.368;2022-11-15T03:33:52;10.88;;;7.05;;
65552;SDS011;52465;51.560;14.368;2022-11-15T03:36:21;9.60;;;5.68;;
65552;SDS011;52465;51.560;14.368;2022-11-15T03:38:48;10.25;;;6.38;;
65552;SDS011;52465;51.560;14.368;2022-11-15T03:41:20;9.70;;;6.13;;
65552;SDS011;52465;51.560;14.368;2022-11-15T03:43:56;10.57;;;6.80;;
65552;SDS011;52465;51.560;14.368;2022-11-15T03:46:32;8.57;;;5.80;;
65552;SDS011;52465;51.560;14.368;2022-11-15T03:49:16;9.73;;;6.10;;
65552;SDS011;52465;51.560;14.368;2022-11-15T03:51:48;8.57;;;5.70;;
65552;SDS011;52465;51.560;14.368;2022-11-15T03:54:13;8.48;;;6.18;;
65552;SDS011;52465;51.560;14.368;2022-11-15T03:56:38;9.23;;;6.00;;
65552;SDS011;52465;51.560;14.368;2022-11-15T03:59:04;9.18;;;5.93;;
65552;SDS011;52465;51.560;14.368;2022-11-15T04:01:29;10.90;;;6.32;;
65552;SDS011;52465;51.560;14.368;2022-11-15T04:03:54;10.23;;;6.03;;
65552;SDS011;52465;51.560;14.368;2022-11-15T04:06:20;9.25;;;6.00;;
65552;SDS011;52465;51.560;14.368;2022-11-15T04:08:45;12.55;;;7.30;;
65552;SDS011;52465;51.560;14.368;2022-11-15T04:11:10;10.05;;;6.45;;
65552;SDS011;52465;51.560;14.368;2022-11-15T04:13:35;9.27;;;5.25;;
65552;SDS011;52465;51.560;14.368;2022-11-15T04:16:01;9.27;;;5.95;;
65552;SDS011;52465;51.560;14.368;2022-11-15T04:18:26;8.75;;;6.38;;
65552;SDS011;52465;51.560;14.368;2022-11-15T04:20:51;11.88;;;7.10;;
65552;SDS011;52465;51.560;14.368;2022-11-15T04:23:35;10.55;;;7.28;;
65552;SDS011;52465;51.560;14.368;2022-11-15T04:26:20;10.75;;;5.75;;
65552;SDS011;52465;51.560;14.368;2022-11-15T04:28:47;9.27;;;6.90;;
65552;SDS011;52465;51.560;14.368;2022-11-15T04:31:31;9.57;;;6.18;;
65552;SDS011;52465;51.560;14.368;2022-11-15T04:33:57;8.27;;;5.13;;
65552;SDS011;52465;51.560;14.368;2022-11-15T04:36:22;10.02;;;6.32;;
65552;SDS011;52465;51.560;14.368;2022-11-15T04:39:06;9.32;;;5.95;;
65552;SDS011;52465;51.560;14.368;2022-11-15T04:41:32;9.07;;;5.63;;
65552;SDS011;52465;51.560;14.368;2022-11-15T04:43:57;10.27;;;5.85;;
65552;SDS011;52465;51.560;14.368;2022-11-15T04:46:23;11.30;;;6.63;;
65552;SDS011;52465;51.560;14.368;2022-11-15T04:48:49;10.95;;;6.72;;
65552;SDS011;52465;51.560;14.368;2022-11-15T04:51:15;9.93;;;6.20;;
65552;SDS011;52465;51.560;14.368;2022-11-15T04:53:40;10.98;;;6.25;;
65552;SDS011;52465;51.560;14.368;2022-11-15T04:56:05;9.18;;;6.15;;
65552;SDS011;52465;51.560;14.368;2022-11-15T04:58:31;10.32;;;6.15;;
65552;SDS011;52465;51.560;14.368;2022-11-15T05:00:56;8.57;;;5.95;;
65552;SDS011;52465;51.560;14.368;2022-11-15T05:03:21;10.73;;;6.07;;
65552;SDS011;52465;51.560;14.368;2022-11-15T05:06:05;9.48;;;6.30;;
65552;SDS011;52465;51.560;14.368;2022-11-15T05:08:31;10.00;;;6.03;;
65552;SDS011;52465;51.560;14.368;2022-11-15T05:10:56;10.63;;;6.50;;
65552;SDS011;52465;51.560;14.368;2022-11-15T05:13:22;10.55;;;6.20;;
65552;SDS011;52465;51.560;14.368;2022-11-15T05:15:47;8.90;;;5.63;;
65552;SDS011;52465;51.560;14.368;2022-11-15T05:18:12;9.70;;;6.05;;
65552;SDS011;52465;51.560;14.368;2022-11-15T05:20:38;9.45;;;6.35;;
65552;SDS011;52465;51.560;14.368;2022-11-15T05:23:03;9.45;;;6.10;;
65552;SDS011;52465;51.560;14.368;2022-11-15T05:25:29;11.10;;;6.85;;
65552;SDS011;52465;51.560;14.368;2022-11-15T05:27:54;10.20;;;6.43;;
65552;SDS011;52465;51.560;14.368;2022-11-15T05:30:20;10.07;;;6.47;;
65552;SDS011;52465;51.560;14.368;2022-11-15T05:32:45;11.30;;;6.70;;
65552;SDS011;52465;51.560;14.368;2022-11-15T05:35:16;11.07;;;6.05;;
65552;SDS011;52465;51.560;14.368;2022-11-15T05:37:56;11.13;;;7.05;;
65552;SDS011;52465;51.560;14.368;2022-11-15T05:40:21;10.00;;;6.25;;
65552;SDS011;52465;51.560;14.368;2022-11-15T05:42:46;8.93;;;5.80;;
65552;SDS011;52465;51.560;14.368;2022-11-15T05:45:12;9.35;;;6.10;;
65552;SDS011;52465;51.560;14.368;2022-11-15T05:47:38;11.07;;;6.35;;
65552;SDS011;52465;51.560;14.368;2022-11-15T05:50:04;10.40;;;6.43;;
65552;SDS011;52465;51.560;14.368;2022-11-15T05:52:31;9.90;;;6.43;;
65552;SDS011;52465;51.560;14.368;2022-11-15T05:55:00;12.23;;;7.47;;
65552;SDS011;52465;51.560;14.368;2022-11-15T05:57:27;12.27;;;7.03;;
65552;SDS011;52465;51.560;14.368;2022-11-15T05:59:53;7.95;;;5.50;;
65552;SDS011;52465;51.560;14.368;2022-11-15T06:02:19;8.63;;;6.10;;
65552;SDS011;52465;51.560;14.368;2022-11-15T06:04:44;10.38;;;6.72;;
65552;SDS011;52465;51.560;14.368;2022-11-15T06:07:09;9.52;;;5.78;;
65552;SDS011;52465;51.560;14.368;2022-11-15T06:09:35;10.18;;;6.75;;
65552;SDS011;52465;51.560;14.368;2022-11-15T06:12:00;10.55;;;6.43;;
65552;SDS011;52465;51.560;14.368;2022-11-15T06:14:25;11.82;;;6.75;;
65552;SDS011;52465;51.560;14.368;2022-11-15T06:16:50;11.02;;;6.93;;
65552;SDS011;52465;51.560;14.368;2022-11-15T06:19:16;10.77;;;7.07;;
65552;SDS011;52465;51.560;14.368;2022-11-15T06:21:41;11.90;;;7.25;;
65552;SDS011;52465;51.560;14.368;2022-11-15T06:24:07;11.77;;;7.13;;
65552;SDS011;52465;51.560;14.368;2022-11-15T06:26:32;11.73;;;7.13;;
65552;SDS011;52465;51.560;14.368;2022-11-15T06:28:57;13.30;;;7.82;;
65552;SDS011;52465;51.560;14.368;2022-11-15T06:31:23;11.65;;;7.20;;
65552;SDS011;52465;51.560;14.368;2022-11-15T06:33:48;11.40;;;7.07;;
65552;SDS011;52465;51.560;14.368;2022-11-15T06:36:14;11.82;;;7.00;;
65552;SDS011;52465;51.560;14.368;2022-11-15T06:38:41;12.43;;;6.70;;
65552;SDS011;52465;51.560;14.368;2022-11-15T06:41:07;12.20;;;7.30;;
65552;SDS011;52465;51.560;14.368;2022-11-15T06:43:34;12.25;;;7.22;;
65552;SDS011;52465;51.560;14.368;2022-11-15T06:46:00;12.90;;;7.85;;
65552;SDS011;52465;51.560;14.368;2022-11-15T06:48:26;13.70;;;7.63;;
65552;SDS011;52465;51.560;14.368;2022-11-15T06:50:53;11.02;;;6.78;;
65552;SDS011;52465;51.560;14.368;2022-11-15T06:53:18;10.52;;;6.45;;
65552;SDS011;52465;51.560;14.368;2022-11-15T06:55:44;12.23;;;7.28;;
65552;SDS011;52465;51.560;14.368;2022-11-15T06:58:09;13.98;;;7.63;;
65552;SDS011;52465;51.560;14.368;2022-11-15T07:00:36;12.90;;;7.45;;
65552;SDS011;52465;51.560;14.368;2022-11-15T07:03:02;13.07;;;7.50;;
65552;SDS011;52465;51.560;14.368;2022-11-15T07:05:28;10.80;;;6.97;;
65552;SDS011;52465;51.560;14.368;2022-11-15T07:07:57;12.18;;;7.07;;
65552;SDS011;52465;51.560;14.368;2022-11-15T07:10:23;12.63;;;6.88;;
65552;SDS011;52465;51.560;14.368;2022-11-15T07:12:52;10.88;;;7.00;;
65552;SDS011;52465;51.560;14.368;2022-11-15T07:15:20;11.50;;;6.78;;
65552;SDS011;52465;51.560;14.368;2022-11-15T07:17:47;11.65;;;7.20;;
65552;SDS011;52465;51.560;14.368;2022-11-15T07:20:13;10.68;;;6.93;;
65552;SDS011;52465;51.560;14.368;2022-11-15T07:22:38;11.15;;;6.88;;
65552;SDS011;52465;51.560;14.368;2022-11-15T07:25:04;10.68;;;6.65;;
65552;SDS011;52465;51.560;14.368;2022-11-15T07:27:29;12.40;;;6.47;;
65552;SDS011;52465;51.560;14.368;2022-11-15T07:29:55;11.10;;;7.10;;
65552;SDS011;52465;51.560;14.368;2022-11-15T07:32:20;10.25;;;6.57;;
65552;SDS011;52465;51.560;14.368;2022-11-15T07:34:45;11.60;;;6.18;;
65552;SDS011;52465;51.560;14.368;2022-11-15T07:37:11;11.43;;;6.57;;
65552;SDS011;52465;51.560;14.368;2022-11-15T07:39:37;9.98;;;6.40;;
65552;SDS011;52465;51.560;14.368;2022-11-15T07:42:02;12.38;;;7.00;;
65552;SDS011;52465;51.560;14.368;2022-11-15T07:44:46;11.23;;;6.68;;
65552;SDS011;52465;51.560;14.368;2022-11-15T07:47:12;9.63;;;6.20;;
65552;SDS011;52465;51.560;14.368;2022-11-15T07:49:37;10.32;;;6.45;;
65552;SDS011;52465;51.560;14.368;2022-11-15T07:52:02;11.10;;;6.57;;
65552;SDS011;52465;51.560;14.368;2022-11-15T07:54:28;11.13;;;6.40;;
65552;SDS011;52465;51.560;14.368;2022-11-15T07:56:53;12.15;;;6.90;;
65552;SDS011;52465;51.560;14.368;2022-11-15T07:59:18;10.48;;;6.40;;
65552;SDS011;52465;51.560;14.368;2022-11-15T08:01:44;10.57;;;6.55;;
65552;SDS011;52465;51.560;14.368;2022-11-15T08:04:10;10.45;;;6.68;;
65552;SDS011;52465;51.560;14.368;2022-11-15T08:06:36;9.07;;;6.25;;
65552;SDS011;52465;51.560;14.368;2022-11-15T08:09:01;11.90;;;6.57;;
65552;SDS011;52465;51.560;14.368;2022-11-15T08:11:27;12.02;;;7.32;;
65552;SDS011;52465;51.560;14.368;2022-11-15T08:13:52;9.70;;;6.22;;
65552;SDS011;52465;51.560;14.368;2022-11-15T08:16:17;12.40;;;7.22;;
65552;SDS011;52465;51.560;14.368;2022-11-15T08:18:43;11.30;;;6.43;;
65552;SDS011;52465;51.560;14.368;2022-11-15T08:21:09;12.25;;;7.30;;
65552;SDS011;52465;51.560;14.368;2022-11-15T08:23:35;12.55;;;7.57;;
65552;SDS011;52465;51.560;14.368;2022-11-15T08:26:01;11.75;;;6.75;;
65552;SDS011;52465;51.560;14.368;2022-11-15T08:28:28;11.23;;;7.25;;
65552;SDS011;52465;51.560;14.368;2022-11-15T08:30:53;11.95;;;6.40;;
65552;SDS011;52465;51.560;14.368;2022-11-15T08:33:19;9.25;;;6.32;;
65552;SDS011;52465;51.560;14.368;2022-11-15T08:35:44;11.57;;;6.40;;
65552;SDS011;52465;51.560;14.368;2022-11-15T08:38:09;9.93;;;6.15;;
65552;SDS011;52465;51.560;14.368;2022-11-15T08:40:35;12.25;;;7.05;;
65552;SDS011;52465;51.560;14.368;2022-11-15T08:43:00;10.27;;;6.57;;
65552;SDS011;52465;51.560;14.368;2022-11-15T08:45:27;13.20;;;6.68;;
65552;SDS011;52465;51.560;14.368;2022-11-15T08:47:53;12.75;;;6.97;;
65552;SDS011;52465;51.560;14.368;2022-11-15T08:50:19;10.15;;;6.25;;
65552;SDS011;52465;51.560;14.368;2022-11-15T08:52:44;10.05;;;6.70;;
65552;SDS011;52465;51.560;14.368;2022-11-15T08:55:10;11.40;;;6.93;;
65552;SDS011;52465;51.560;14.368;2022-11-15T08:57:35;12.02;;;6.53;;
65552;SDS011;52465;51.560;14.368;2022-11-15T09:00:00;11.65;;;6.53;;
65552;SDS011;52465;51.560;14.368;2022-11-15T09:02:26;11.70;;;6.93;;
65552;SDS011;52465;51.560;14.368;2022-11-15T09:04:51;11.50;;;6.95;;
65552;SDS011;52465;51.560;14.368;2022-11-15T09:07:16;12.07;;;6.80;;
65552;SDS011;52465;51.560;14.368;2022-11-15T09:09:42;9.77;;;6.35;;
65552;SDS011;52465;51.560;14.368;2022-11-15T09:12:07;10.82;;;6.53;;
65552;SDS011;52465;51.560;14.368;2022-11-15T09:14:33;10.20;;;6.65;;
65552;SDS011;52465;51.560;14.368;2022-11-15T09:16:59;11.15;;;6.57;;
65552;SDS011;52465;51.560;14.368;2022-11-15T09:19:25;10.80;;;6.70;;
65552;SDS011;52465;51.560;14.368;2022-11-15T09:21:50;9.25;;;6.35;;
65552;SDS011;52465;51.560;14.368;2022-11-15T09:24:16;9.77;;;6.50;;
65552;SDS011;52465;51.560;14.368;2022-11-15T09:26:42;10.75;;;6.40;;
65552;SDS011;52465;51.560;14.368;2022-11-15T09:29:07;10.57;;;6.65;;
65552;SDS011;52465;51.560;14.368;2022-11-15T09:31:33;11.93;;;6.53;;
65552;SDS011;52465;51.560;14.368;2022-11-15T09:33:58;9.73;;;6.25;;
65552;SDS011;52465;51.560;14.368;2022-11-15T09:36:23;10.82;;;6.57;;
65552;SDS011;52465;51.560;14.368;2022-11-15T09:38:48;9.23;;;6.00;;
65552;SDS011;52465;51.560;14.368;2022-11-15T09:49:20;10.05;;;5.65;;
65552;SDS011;52465;51.560;14.368;2022-11-15T09:51:47;9.85;;;6.43;;
65552;SDS011;52465;51.560;14.368;2022-11-15T09:57:13;9.60;;;6.13;;
65552;SDS011;52465;51.560;14.368;2022-11-15T10:02:33;9.68;;;5.90;;
65552;SDS011;52465;51.560;14.368;2022-11-15T10:05:21;10.45;;;5.88;;
65552;SDS011;52465;51.560;14.368;2022-11-15T10:07:50;9.55;;;5.95;;
65552;SDS011;52465;51.560;14.368;2022-11-15T10:10:35;8.50;;;5.43;;
65552;SDS011;52465;51.560;14.368;2022-11-15T10:13:09;8.52;;;5.72;;
65552;SDS011;52465;51.560;14.368;2022-11-15T10:18:18;8.40;;;5.55;;
65552;SDS011;52465;51.560;14.368;2022-11-15T10:20:49;7.78;;;5.20;;
65552;SDS011;52465;51.560;14.368;2022-11-15T10:23:18;9.23;;;5.40;;
65552;SDS011;52465;51.560;14.368;2022-11-15T10:25:45;8.30;;;5.60;;
65552;SDS011;52465;51.560;14.368;2022-11-15T10:28:13;9.80;;;6.15;;
65552;SDS011;52465;51.560;14.368;2022-11-15T10:30:45;8.98;;;5.85;;
65552;SDS011;52465;51.560;14.368;2022-11-15T10:33:15;8.88;;;6.00;;
65552;SDS011;52465;51.560;14.368;2022-11-15T10:35:46;9.23;;;5.78;;
65552;SDS011;52465;51.560;14.368;2022-11-15T10:38:11;7.93;;;5.28;;
65552;SDS011;52465;51.560;14.368;2022-11-15T10:40:38;8.80;;;5.38;;
65552;SDS011;52465;51.560;14.368;2022-11-15T10:45:36;8.35;;;5.63;;
65552;SDS011;52465;51.560;14.368;2022-11-15T10:50:36;7.82;;;5.22;;
65552;SDS011;52465;51.560;14.368;2022-11-15T10:53:01;8.63;;;6.18;;
65552;SDS011;52465;51.560;14.368;2022-11-15T10:55:28;8.25;;;5.38;;
65552;SDS011;52465;51.560;14.368;2022-11-15T10:58:05;8.60;;;5.53;;
65552;SDS011;52465;51.560;14.368;2022-11-15T11:00:44;7.72;;;5.30;;
65552;SDS011;52465;51.560;14.368;2022-11-15T11:03:27;8.35;;;5.50;;
65552;SDS011;52465;51.560;14.368;2022-11-15T11:08:30;8.02;;;5.45;;
65552;SDS011;52465;51.560;14.368;2022-11-15T11:10:57;6.53;;;4.60;;
65552;SDS011;52465;51.560;14.368;2022-11-15T11:13:25;7.82;;;4.47;;
65552;SDS011;52465;51.560;14.368;2022-11-15T11:15:55;7.47;;;5.28;;
65552;SDS011;52465;51.560;14.368;2022-11-15T11:18:33;8.00;;;5.22;;
65552;SDS011;52465;51.560;14.368;2022-11-15T11:21:10;7.38;;;5.13;;
65552;SDS011;52465;51.560;14.368;2022-11-15T11:23:42;8.25;;;5.38;;
65552;SDS011;52465;51.560;14.368;2022-11-15T11:50:32;8.73;;;5.10;;
65552;SDS011;52465;51.560;14.368;2022-11-15T11:55:41;7.38;;;5.07;;
65552;SDS011;52465;51.560;14.368;2022-11-15T11:58:25;6.30;;;4.47;;
65552;SDS011;52465;51.560;14.368;2022-11-15T12:00:55;7.20;;;4.43;;
65552;SDS011;52465;51.560;14.368;2022-11-15T12:06:06;7.75;;;4.90;;
65552;SDS011;52465;51.560;14.368;2022-11-15T12:08:53;7.60;;;4.88;;
65552;SDS011;52465;51.560;14.368;2022-11-15T12:11:28;7.22;;;4.88;;
65552;SDS011;52465;51.560;14.368;2022-11-15T12:14:01;5.97;;;3.95;;
65552;SDS011;52465;51.560;14.368;2022-11-15T12:16:29;5.65;;;3.80;;
65552;SDS011;52465;51.560;14.368;2022-11-15T12:18:56;5.78;;;4.25;;
65552;SDS011;52465;51.560;14.368;2022-11-15T12:24:00;7.93;;;4.95;;
65552;SDS011;52465;51.560;14.368;2022-11-15T12:29:02;7.93;;;4.60;;
65552;SDS011;52465;51.560;14.368;2022-11-15T12:31:48;7.00;;;4.63;;
65552;SDS011;52465;51.560;14.368;2022-11-15T12:36:44;6.40;;;4.32;;
65552;SDS011;52465;51.560;14.368;2022-11-15T12:39:10;8.52;;;4.65;;
65552;SDS011;52465;51.560;14.368;2022-11-15T12:41:38;6.57;;;4.43;;
65552;SDS011;52465;51.560;14.368;2022-11-15T12:44:09;6.85;;;4.80;;
65552;SDS011;52465;51.560;14.368;2022-11-15T12:49:09;6.35;;;4.45;;
65552;SDS011;52465;51.560;14.368;2022-11-15T12:52:05;7.20;;;4.80;;
65552;SDS011;52465;51.560;14.368;2022-11-15T12:54:53;6.90;;;4.80;;
65552;SDS011;52465;51.560;14.368;2022-11-15T12:59:54;6.97;;;4.63;;
65552;SDS011;52465;51.560;14.368;2022-11-15T13:02:30;7.30;;;4.63;;
65552;SDS011;52465;51.560;14.368;2022-11-15T13:12:53;7.68;;;4.90;;
65552;SDS011;52465;51.560;14.368;2022-11-15T13:15:35;6.43;;;4.10;;
65552;SDS011;52465;51.560;14.368;2022-11-15T13:21:00;7.25;;;4.50;;
65552;SDS011;52465;51.560;14.368;2022-11-15T13:23:51;6.18;;;4.07;;
65552;SDS011;52465;51.560;14.368;2022-11-15T13:28:46;6.82;;;4.25;;
65552;SDS011;52465;51.560;14.368;2022-11-15T13:33:59;6.95;;;4.50;;
65552;SDS011;52465;51.560;14.368;2022-11-15T13:36:28;6.35;;;4.10;;
65552;SDS011;52465;51.560;14.368;2022-11-15T13:38:59;6.18;;;4.10;;
65552;SDS011;52465;51.560;14.368;2022-11-15T13:41:30;6.50;;;4.07;;
65552;SDS011;52465;51.560;14.368;2022-11-15T13:43:57;7.05;;;4.20;;
65552;SDS011;52465;51.560;14.368;2022-11-15T13:46:27;7.35;;;4.15;;
65552;SDS011;52465;51.560;14.368;2022-11-15T13:49:01;6.30;;;4.25;;
65552;SDS011;52465;51.560;14.368;2022-11-15T13:51:40;6.07;;;4.05;;
65552;SDS011;52465;51.560;14.368;2022-11-15T13:54:18;6.18;;;4.25;;
65552;SDS011;52465;51.560;14.368;2022-11-15T13:56:51;6.38;;;3.92;;
65552;SDS011;52465;51.560;14.368;2022-11-15T13:59:36;5.60;;;4.10;;
65552;SDS011;52465;51.560;14.368;2022-11-15T14:02:15;7.32;;;4.68;;
65552;SDS011;52465;51.560;14.368;2022-11-15T14:04:51;6.60;;;4.47;;
65552;SDS011;52465;51.560;14.368;2022-11-15T14:07:18;7.07;;;4.25;;
65552;SDS011;52465;51.560;14.368;2022-11-15T14:09:46;6.95;;;4.35;;
65552;SDS011;52465;51.560;14.368;2022-11-15T14:12:31;6.40;;;4.03;;
65552;SDS011;52465;51.560;14.368;2022-11-15T14:14:59;6.40;;;4.10;;
65552;SDS011;52465;51.560;14.368;2022-11-15T14:19:56;5.60;;;3.47;;
65552;SDS011;52465;51.560;14.368;2022-11-15T14:22:29;5.75;;;3.78;;
65552;SDS011;52465;51.560;14.368;2022-11-15T14:25:13;5.35;;;4.00;;
65552;SDS011;52465;51.560;14.368;2022-11-15T14:27:39;7.38;;;4.63;;
65552;SDS011;52465;51.560;14.368;2022-11-15T14:30:05;5.93;;;3.53;;
65552;SDS011;52465;51.560;14.368;2022-11-15T14:35:17;6.68;;;4.28;;
65552;SDS011;52465;51.560;14.368;2022-11-15T14:37:45;5.78;;;3.90;;
65552;SDS011;52465;51.560;14.368;2022-11-15T14:40:15;6.80;;;4.28;;
65552;SDS011;52465;51.560;14.368;2022-11-15T14:42:42;6.15;;;4.18;;
65552;SDS011;52465;51.560;14.368;2022-11-15T14:45:10;6.25;;;4.00;;
65552;SDS011;52465;51.560;14.368;2022-11-15T14:47:38;5.03;;;3.65;;
65552;SDS011;52465;51.560;14.368;2022-11-15T14:50:03;6.63;;;4.40;;
65552;SDS011;52465;51.560;14.368;2022-11-15T14:52:30;6.47;;;4.25;;
65552;SDS011;52465;51.560;14.368;2022-11-15T14:55:00;6.85;;;4.40;;
65552;SDS011;52465;51.560;14.368;2022-11-15T14:57:27;5.80;;;3.78;;
65552;SDS011;52465;51.560;14.368;2022-11-15T14:59:52;6.03;;;4.13;;
65552;SDS011;52465;51.560;14.368;2022-11-15T15:02:20;5.68;;;3.40;;
65552;SDS011;52465;51.560;14.368;2022-11-15T15:04:47;6.35;;;3.78;;
65552;SDS011;52465;51.560;14.368;2022-11-15T15:07:13;5.53;;;3.90;;
65552;SDS011;52465;51.560;14.368;2022-11-15T15:09:39;6.05;;;3.78;;
65552;SDS011;52465;51.560;14.368;2022-11-15T15:12:05;5.85;;;3.75;;
65552;SDS011;52465;51.560;14.368;2022-11-15T15:14:39;5.55;;;3.55;;
65552;SDS011;52465;51.560;14.368;2022-11-15T15:17:04;5.82;;;3.80;;
65552;SDS011;52465;51.560;14.368;2022-11-15T15:19:30;6.80;;;3.80;;
65552;SDS011;52465;51.560;14.368;2022-11-15T15:21:55;6.60;;;4.28;;
65552;SDS011;52465;51.560;14.368;2022-11-15T15:24:20;5.78;;;3.92;;
65552;SDS011;52465;51.560;14.368;2022-11-15T15:26:45;4.97;;;3.70;;
65552;SDS011;52465;51.560;14.368;2022-11-15T15:29:11;5.55;;;3.42;;
65552;SDS011;52465;51.560;14.368;2022-11-15T15:31:36;4.80;;;3.45;;
65552;SDS011;52465;51.560;14.368;2022-11-15T15:34:01;5.55;;;3.92;;
65552;SDS011;52465;51.560;14.368;2022-11-15T15:36:26;5.82;;;3.80;;
65552;SDS011;52465;51.560;14.368;2022-11-15T15:38:52;6.15;;;4.00;;
65552;SDS011;52465;51.560;14.368;2022-11-15T15:41:17;5.55;;;3.72;;
65552;SDS011;52465;51.560;14.368;2022-11-15T15:43:43;5.93;;;3.85;;
65552;SDS011;52465;51.560;14.368;2022-11-15T15:46:13;6.03;;;4.03;;
65552;SDS011;52465;51.560;14.368;2022-11-15T15:48:41;4.85;;;3.67;;
65552;SDS011;52465;51.560;14.368;2022-11-15T15:51:07;5.97;;;4.03;;
65552;SDS011;52465;51.560;14.368;2022-11-15T15:53:32;5.07;;;3.63;;
65552;SDS011;52465;51.560;14.368;2022-11-15T15:55:58;5.63;;;3.53;;
65552;SDS011;52465;51.560;14.368;2022-11-15T15:58:23;5.57;;;3.78;;
65552;SDS011;52465;51.560;14.368;2022-11-15T16:00:48;6.63;;;3.75;;
65552;SDS011;52465;51.560;14.368;2022-11-15T16:03:14;4.18;;;3.25;;
65552;SDS011;52465;51.560;14.368;2022-11-15T16:05:39;5.55;;;4.32;;
65552;SDS011;52465;51.560;14.368;2022-11-15T16:08:04;5.32;;;3.55;;
65552;SDS011;52465;51.560;14.368;2022-11-15T16:10:31;5.65;;;3.88;;
65552;SDS011;52465;51.560;14.368;2022-11-15T16:12:58;3.92;;;3.20;;
65552;SDS011;52465;51.560;14.368;2022-11-15T16:15:25;5.78;;;4.03;;
65552;SDS011;52465;51.560;14.368;2022-11-15T16:23:08;4.75;;;3.35;;
65552;SDS011;52465;51.560;14.368;2022-11-15T16:25:39;5.90;;;3.38;;
65552;SDS011;52465;51.560;14.368;2022-11-15T16:31:04;5.57;;;3.67;;